createdAt,value
2022-11-28T00:00:26.171Z,13.43
2022-11-28T00:03:12.441Z,15.13
2022-11-28T00:06:04.409Z,15.87
2022-11-28T00:08:52.232Z,14.03
2022-11-28T00:11:40.859Z,15.00
2022-11-28T00:14:27.010Z,12.70
2022-11-28T00:17:13.301Z,13.23
2022-11-28T00:19:59.878Z,13.90
2022-11-28T00:22:46.460Z,17.73
2022-11-28T00:25:34.100Z,17.67
2022-11-28T00:28:20.590Z,16.40
2022-11-28T00:31:07.346Z,14.43
2022-11-28T00:33:54.420Z,15.30
2022-11-28T00:36:40.612Z,18.57
2022-11-28T00:39:27.214Z,14.53
2022-11-28T00:42:16.514Z,19.40
2022-11-28T00:45:02.859Z,15.73
2022-11-28T00:47:49.187Z,17.10
2022-11-28T00:50:35.422Z,15.70
2022-11-28T00:53:22.106Z,21.73
2022-11-28T00:56:09.673Z,18.10
2022-11-28T00:58:57.847Z,17.90
2022-11-28T01:01:45.057Z,16.70
2022-11-28T01:04:31.371Z,19.27
2022-11-28T01:07:18.108Z,16.83
2022-11-28T01:10:04.819Z,17.20
2022-11-28T01:12:51.312Z,17.73
2022-11-28T01:15:44.033Z,15.40
2022-11-28T01:18:30.379Z,15.77
2022-11-28T01:21:16.993Z,14.53
2022-11-28T01:24:03.452Z,17.97
2022-11-28T01:26:49.622Z,16.40
2022-11-28T01:29:36.135Z,19.17
2022-11-28T01:32:23.711Z,14.93
2022-11-28T01:35:10.657Z,17.63
2022-11-28T01:37:56.967Z,13.70
2022-11-28T01:40:46.626Z,13.93
2022-11-28T01:43:33.351Z,15.97
2022-11-28T01:46:19.846Z,20.83
2022-11-28T01:49:12.643Z,14.63
2022-11-28T01:52:03.962Z,15.50
2022-11-28T01:54:54.019Z,14.73
2022-11-28T01:57:41.101Z,15.63
2022-11-28T02:00:27.427Z,15.27
2022-11-28T02:03:18.494Z,16.80
2022-11-28T02:06:06.753Z,16.37
2022-11-28T02:08:54.038Z,16.87
2022-11-28T02:11:54.565Z,18.20
2022-11-28T02:15:03.967Z,17.03
2022-11-28T02:18:04.197Z,19.80
2022-11-28T02:21:11.228Z,18.47
2022-11-28T02:24:40.889Z,16.13
2022-11-28T02:27:38.839Z,17.27
2022-11-28T02:30:31.068Z,17.30
2022-11-28T02:33:26.109Z,16.33
2022-11-28T02:36:16.775Z,15.33
2022-11-28T02:39:12.291Z,14.93
2022-11-28T02:42:07.000Z,15.87
2022-11-28T02:44:59.923Z,17.07
2022-11-28T02:47:51.166Z,19.83
2022-11-28T02:50:43.025Z,13.90
2022-11-28T02:53:33.785Z,16.07
2022-11-28T02:56:20.568Z,15.93
2022-11-28T02:59:32.089Z,18.57
2022-11-28T03:02:20.771Z,18.93
2022-11-28T03:05:12.378Z,14.83
2022-11-28T03:08:11.707Z,17.60
2022-11-28T03:11:04.263Z,14.93
2022-11-28T03:13:58.367Z,18.93
2022-11-28T03:16:50.121Z,12.93
2022-11-28T03:19:40.884Z,16.67
2022-11-28T03:22:31.443Z,15.47
2022-11-28T03:25:29.568Z,13.20
2022-11-28T03:28:22.490Z,15.97
2022-11-28T03:31:13.902Z,11.90
2022-11-28T03:34:02.003Z,15.13
2022-11-28T03:36:53.350Z,13.87
2022-11-28T03:39:42.559Z,15.37
2022-11-28T03:42:33.603Z,14.00
2022-11-28T03:45:23.224Z,14.77
2022-11-28T03:48:13.850Z,15.77
2022-11-28T03:51:07.060Z,14.47
2022-11-28T03:54:00.635Z,14.67
2022-11-28T03:56:52.951Z,14.97
2022-11-28T03:59:43.802Z,14.33
2022-11-28T04:02:35.178Z,12.77
2022-11-28T04:05:26.671Z,13.67
2022-11-28T04:08:16.583Z,11.13
2022-11-28T04:11:08.549Z,16.43
2022-11-28T04:13:59.283Z,16.23
2022-11-28T04:16:54.057Z,15.10
2022-11-28T04:19:44.726Z,23.70
2022-11-28T04:22:34.579Z,13.47
2022-11-28T04:25:24.672Z,13.87
2022-11-28T04:28:14.505Z,11.27
2022-11-28T04:31:03.759Z,12.37
2022-11-28T04:33:55.819Z,11.60
2022-11-28T04:36:44.711Z,14.97
2022-11-28T04:39:34.507Z,15.33
2022-11-28T04:42:23.311Z,13.93
2022-11-28T04:45:14.890Z,17.07
2022-11-28T04:48:02.696Z,13.70
2022-11-28T04:50:59.005Z,14.07
2022-11-28T04:53:50.212Z,12.53
2022-11-28T04:56:42.037Z,10.97
2022-11-28T04:59:31.224Z,12.50
2022-11-28T05:02:20.546Z,12.93
2022-11-28T05:05:10.995Z,14.33
2022-11-28T05:07:58.977Z,12.80
2022-11-28T05:10:45.639Z,13.73
2022-11-28T05:13:31.946Z,13.43
2022-11-28T05:16:18.688Z,15.70
2022-11-28T05:19:05.244Z,16.70
2022-11-28T05:21:53.098Z,12.10
2022-11-28T05:24:41.050Z,13.20
2022-11-28T05:27:27.222Z,14.83
2022-11-28T05:30:14.928Z,14.13
2022-11-28T05:33:02.104Z,14.43
2022-11-28T05:35:48.620Z,11.67
2022-11-28T05:38:35.572Z,11.57
2022-11-28T05:41:25.250Z,11.57
2022-11-28T05:44:11.952Z,11.57
2022-11-28T05:46:58.131Z,16.00
2022-11-28T05:49:45.231Z,15.53
2022-11-28T05:52:32.337Z,17.23
2022-11-28T05:55:19.055Z,14.70
2022-11-28T05:58:07.604Z,15.03
2022-11-28T06:00:53.863Z,17.27
2022-11-28T06:03:40.392Z,18.83
2022-11-28T06:06:31.639Z,14.00
2022-11-28T06:09:20.954Z,15.77
2022-11-28T06:12:10.808Z,16.00
2022-11-28T06:14:58.396Z,16.83
2022-11-28T06:17:44.591Z,14.83
2022-11-28T06:20:30.896Z,14.07
2022-11-28T06:23:17.087Z,14.47
2022-11-28T06:26:06.627Z,16.57
2022-11-28T06:28:53.373Z,17.27
2022-11-28T06:31:41.366Z,17.27
2022-11-28T06:34:28.215Z,17.73
2022-11-28T06:37:14.518Z,19.13
2022-11-28T06:40:00.672Z,14.70
2022-11-28T06:42:50.332Z,13.57
2022-11-28T06:45:37.137Z,14.63
2022-11-28T06:48:25.645Z,15.70
2022-11-28T06:51:12.498Z,15.13
2022-11-28T06:53:59.154Z,13.33
2022-11-28T06:56:45.572Z,14.93
2022-11-28T06:59:32.294Z,13.43
2022-11-28T07:02:18.983Z,11.47
2022-11-28T07:05:07.983Z,11.07
2022-11-28T07:07:54.760Z,12.67
2022-11-28T07:10:41.419Z,12.97
2022-11-28T07:13:27.667Z,12.60
2022-11-28T07:16:16.694Z,15.27
2022-11-28T07:19:03.583Z,12.10
2022-11-28T07:21:51.833Z,13.57
2022-11-28T07:24:38.349Z,13.00
2022-11-28T07:27:24.962Z,13.57
2022-11-28T07:30:11.979Z,14.27
2022-11-28T07:32:58.475Z,11.67
2022-11-28T07:35:44.770Z,11.40
2022-11-28T07:38:32.668Z,8.67
2022-11-28T07:41:24.977Z,11.77
2022-11-28T07:44:13.027Z,15.57
2022-11-28T07:46:59.692Z,9.43
2022-11-28T07:49:46.672Z,9.83
2022-11-28T07:52:33.175Z,12.03
2022-11-28T07:55:20.911Z,9.47
2022-11-28T07:58:07.270Z,11.60
2022-11-28T08:00:53.806Z,11.50
2022-11-28T08:03:40.889Z,9.07
2022-11-28T08:06:29.646Z,11.93
2022-11-28T08:09:16.000Z,14.73
2022-11-28T08:14:55.067Z,11.10
2022-11-28T08:17:41.516Z,11.30
2022-11-28T08:20:27.786Z,11.73
2022-11-28T08:23:14.349Z,11.03
2022-11-28T08:26:01.670Z,13.70
2022-11-28T08:28:50.636Z,15.17
2022-11-28T08:31:38.306Z,11.90
2022-11-28T08:34:24.575Z,13.17
2022-11-28T08:37:11.175Z,12.70
2022-11-28T08:39:57.711Z,13.97
2022-11-28T08:42:44.035Z,12.93
2022-11-28T08:45:32.475Z,16.53
2022-11-28T08:48:19.229Z,19.80
2022-11-28T08:51:06.453Z,17.30
2022-11-28T08:53:59.161Z,14.17
2022-11-28T08:56:48.186Z,15.70
2022-11-28T08:59:34.544Z,10.57
2022-11-28T09:02:25.965Z,10.93
2022-11-28T09:05:12.675Z,12.90
2022-11-28T09:07:59.442Z,13.13
2022-11-28T09:10:47.025Z,11.90
2022-11-28T09:13:33.634Z,19.07
2022-11-28T09:16:20.392Z,13.10
2022-11-28T09:19:09.281Z,13.07
2022-11-28T09:21:57.897Z,15.97
2022-11-28T09:24:44.345Z,15.07
2022-11-28T09:27:30.694Z,14.13
2022-11-28T09:30:18.031Z,13.33
2022-11-28T09:33:04.752Z,15.83
2022-11-28T09:35:52.655Z,16.67
2022-11-28T09:38:39.863Z,13.87
2022-11-28T09:41:39.698Z,13.53
2022-11-28T09:44:32.087Z,14.43
2022-11-28T09:47:23.044Z,12.27
2022-11-28T09:50:16.608Z,15.00
2022-11-28T09:53:14.688Z,11.90
2022-11-28T09:56:07.411Z,13.67
2022-11-28T09:58:58.834Z,18.63
2022-11-28T10:01:50.838Z,12.67
2022-11-28T10:04:43.463Z,21.40
2022-11-28T10:07:44.261Z,18.37
2022-11-28T10:10:42.221Z,15.73
2022-11-28T10:14:06.152Z,15.30
2022-11-28T10:16:52.838Z,15.30
2022-11-28T10:20:00.647Z,14.53
2022-11-28T10:22:52.735Z,14.10
2022-11-28T10:25:43.465Z,15.00
2022-11-28T10:28:33.989Z,13.37
2022-11-28T10:31:27.628Z,12.57
2022-11-28T10:34:20.517Z,17.90
2022-11-28T10:37:11.671Z,15.20
2022-11-28T10:40:10.719Z,16.47
2022-11-28T10:43:02.412Z,18.40
2022-11-28T10:45:55.266Z,21.40
2022-11-28T10:48:46.664Z,16.10
2022-11-28T10:51:39.260Z,19.90
2022-11-28T10:54:55.487Z,16.33
2022-11-28T10:57:47.332Z,19.27
2022-11-28T11:00:36.317Z,17.17
2022-11-28T11:03:28.062Z,14.10
2022-11-28T11:06:14.772Z,15.80
2022-11-28T11:09:01.141Z,14.17
2022-11-28T11:11:55.064Z,13.43
2022-11-28T11:14:41.650Z,14.77
2022-11-28T11:17:36.113Z,14.00
2022-11-28T11:20:33.438Z,18.00
2022-11-28T11:23:21.770Z,14.80
2022-11-28T11:26:10.363Z,12.00
2022-11-28T11:28:57.598Z,11.87
2022-11-28T11:31:45.375Z,15.40
2022-11-28T11:34:38.557Z,12.67
2022-11-28T11:37:33.922Z,12.67
2022-11-28T11:40:26.879Z,10.53
2022-11-28T11:43:36.220Z,14.87
2022-11-28T11:46:22.855Z,9.53
2022-11-28T11:49:29.367Z,11.30
2022-11-28T11:52:22.040Z,11.40
2022-11-28T11:55:14.714Z,10.27
2022-11-28T11:58:05.898Z,12.40
2022-11-28T12:00:55.772Z,11.07
2022-11-28T12:03:54.333Z,14.23
2022-11-28T12:06:48.012Z,10.97
2022-11-28T12:09:42.920Z,11.63
2022-11-28T12:12:30.782Z,10.43
2022-11-28T12:15:37.070Z,13.33
2022-11-28T12:18:32.006Z,12.33
2022-11-28T12:21:27.727Z,11.80
2022-11-28T12:24:17.563Z,9.33
2022-11-28T12:27:14.113Z,9.23
2022-11-28T12:30:21.322Z,9.60
2022-11-28T12:33:25.608Z,8.57
2022-11-28T12:36:23.352Z,10.70
2022-11-28T12:39:19.326Z,11.60
2022-11-28T12:42:30.531Z,8.80
2022-11-28T12:45:34.242Z,10.27
2022-11-28T12:48:38.000Z,11.37
2022-11-28T12:51:37.128Z,8.53
2022-11-28T12:54:45.304Z,9.33
2022-11-28T12:57:39.461Z,8.70
2022-11-28T13:00:28.014Z,12.30
2022-11-28T13:03:28.791Z,10.67
2022-11-28T13:06:28.053Z,8.27
2022-11-28T13:09:29.136Z,12.87
2022-11-28T13:12:21.272Z,9.53
2022-11-28T13:15:13.790Z,8.87
2022-11-28T13:18:05.544Z,7.90
2022-11-28T13:20:56.839Z,12.07
2022-11-28T13:23:51.804Z,10.57
2022-11-28T13:26:54.024Z,11.67
2022-11-28T13:29:48.163Z,8.47
2022-11-28T13:32:40.740Z,9.40
2022-11-28T13:35:29.126Z,9.10
2022-11-28T13:38:44.137Z,13.57
2022-11-28T13:42:06.373Z,9.17
2022-11-28T13:44:52.010Z,8.97
2022-11-28T13:47:39.935Z,11.53
2022-11-28T13:50:41.246Z,10.07
2022-11-28T13:53:27.886Z,10.63
2022-11-28T13:56:24.598Z,13.00
2022-11-28T13:59:18.071Z,9.57
2022-11-28T14:02:16.234Z,10.13
2022-11-28T14:05:06.736Z,10.63
2022-11-28T14:07:56.086Z,16.17
2022-11-28T14:11:05.642Z,9.47
2022-11-28T14:14:05.451Z,19.20
2022-11-28T14:17:05.312Z,14.17
2022-11-28T14:20:10.362Z,11.73
2022-11-28T14:23:14.449Z,9.50
2022-11-28T14:26:01.092Z,14.87
2022-11-28T14:28:47.741Z,10.43
2022-11-28T14:31:37.999Z,12.70
2022-11-28T14:34:40.759Z,10.87
2022-11-28T14:37:59.462Z,13.47
2022-11-28T14:41:11.501Z,12.77
2022-11-28T14:44:39.976Z,15.27
2022-11-28T14:47:31.860Z,12.23
2022-11-28T14:50:59.372Z,14.77
2022-11-28T14:53:50.628Z,15.53
2022-11-28T14:56:37.072Z,10.83
2022-11-28T14:59:29.520Z,13.77
2022-11-28T15:02:42.949Z,13.83
2022-11-28T15:05:42.271Z,12.43
2022-11-28T15:08:56.856Z,12.97
2022-11-28T15:11:59.495Z,11.03
2022-11-28T15:14:52.423Z,12.40
2022-11-28T15:17:40.591Z,13.40
2022-11-28T15:20:30.485Z,11.97
2022-11-28T15:23:24.413Z,13.83
2022-11-28T15:26:21.322Z,13.10
2022-11-28T15:29:11.899Z,13.47
2022-11-28T15:31:59.463Z,13.00
2022-11-28T15:34:51.629Z,14.40
2022-11-28T15:37:37.936Z,18.03
2022-11-28T15:40:27.526Z,18.23
2022-11-28T15:43:15.734Z,13.23
2022-11-28T15:46:02.884Z,13.00
2022-11-28T15:48:50.631Z,11.47
2022-11-28T15:51:37.100Z,14.23
2022-11-28T15:54:36.117Z,12.93
2022-11-28T15:57:25.108Z,13.83
2022-11-28T16:00:16.772Z,14.93
2022-11-28T16:03:03.416Z,13.67
2022-11-28T16:05:52.199Z,14.03
2022-11-28T16:08:41.808Z,13.67
2022-11-28T16:11:30.695Z,16.47
2022-11-28T16:14:22.271Z,11.83
2022-11-28T16:17:19.199Z,13.90
2022-11-28T16:20:07.187Z,14.33
2022-11-28T16:23:02.458Z,14.73
2022-11-28T16:26:00.707Z,14.30
2022-11-28T16:28:59.523Z,14.90
2022-11-28T16:31:47.772Z,15.47
2022-11-28T16:34:49.869Z,19.07
2022-11-28T16:37:36.324Z,12.63
2022-11-28T16:40:24.778Z,13.83
2022-11-28T16:43:22.079Z,14.50
2022-11-28T16:46:18.209Z,13.73
2022-11-28T16:49:07.048Z,11.73
2022-11-28T16:52:29.426Z,15.07
2022-11-28T16:55:46.173Z,19.57
2022-11-28T16:58:32.445Z,18.47
2022-11-28T17:01:18.998Z,14.57
2022-11-28T17:04:06.150Z,13.40
2022-11-28T17:06:55.103Z,13.43
2022-11-28T17:09:42.159Z,16.30
2022-11-28T17:12:30.855Z,14.60
2022-11-28T17:15:20.040Z,15.37
2022-11-28T17:18:06.563Z,17.10
2022-11-28T17:20:52.938Z,15.98
2022-11-28T17:23:41.902Z,15.32
2022-11-28T17:26:28.090Z,13.60
2022-11-28T17:29:16.269Z,14.77
2022-11-28T17:32:02.958Z,14.07
2022-11-28T17:34:49.484Z,13.97
2022-11-28T17:37:35.690Z,16.27
2022-11-28T17:40:36.617Z,16.20
2022-11-28T17:43:23.003Z,17.47
2022-11-28T17:46:09.584Z,15.93
2022-11-28T17:48:57.600Z,21.37
2022-11-28T17:51:44.322Z,19.60
2022-11-28T17:54:30.661Z,16.70
2022-11-28T17:57:18.287Z,18.03
2022-11-28T18:00:06.448Z,14.17
2022-11-28T18:02:52.620Z,18.67
2022-11-28T18:05:40.351Z,15.27
2022-11-28T18:08:26.864Z,13.73
2022-11-28T18:11:14.791Z,18.00
2022-11-28T18:14:02.650Z,14.23
2022-11-28T18:16:49.307Z,15.27
2022-11-28T18:19:35.700Z,19.23
2022-11-28T18:22:22.319Z,15.37
2022-11-28T18:25:10.278Z,17.93
2022-11-28T18:27:56.725Z,18.33
2022-11-28T18:30:45.748Z,14.80
2022-11-28T18:33:31.956Z,16.87
2022-11-28T18:36:20.999Z,16.57
2022-11-28T18:39:09.766Z,16.83
2022-11-28T18:41:56.350Z,16.97
2022-11-28T18:44:42.736Z,22.80
2022-11-28T18:47:30.524Z,15.90
2022-11-28T18:50:16.823Z,16.67
2022-11-28T18:53:03.516Z,16.67
2022-11-28T18:55:49.713Z,18.00
2022-11-28T18:58:36.785Z,19.47
2022-11-28T19:01:28.266Z,18.07
2022-11-28T19:04:16.824Z,16.63
2022-11-28T19:07:03.985Z,17.27
2022-11-28T19:09:50.424Z,15.87
2022-11-28T19:12:38.137Z,16.17
2022-11-28T19:15:24.460Z,15.50
2022-11-28T19:18:10.691Z,17.80
2022-11-28T19:20:58.803Z,21.20
2022-11-28T19:23:47.033Z,16.77
2022-11-28T19:26:34.264Z,19.97
2022-11-28T19:29:20.613Z,19.30
2022-11-28T19:32:06.957Z,23.07
2022-11-28T19:34:54.017Z,21.93
2022-11-28T19:37:42.155Z,20.80
2022-11-28T19:40:28.765Z,18.93
2022-11-28T19:43:15.047Z,23.77
2022-11-28T19:46:01.400Z,22.27
2022-11-28T19:48:51.123Z,18.27
2022-11-28T19:51:37.354Z,20.23
2022-11-28T19:54:25.733Z,20.10
2022-11-28T19:57:12.407Z,19.60
2022-11-28T19:59:58.770Z,20.17
2022-11-28T20:02:45.084Z,18.43
2022-11-28T20:05:32.314Z,19.20
2022-11-28T20:08:18.564Z,20.03
2022-11-28T20:11:11.820Z,21.47
2022-11-28T20:13:59.617Z,17.83
2022-11-28T20:16:46.957Z,19.67
2022-11-28T20:19:33.266Z,18.77
2022-11-28T20:22:21.816Z,20.67
2022-11-28T20:25:09.104Z,22.93
2022-11-28T20:27:56.712Z,18.57
2022-11-28T20:30:43.007Z,19.00
2022-11-28T20:33:29.983Z,20.77
2022-11-28T20:36:18.931Z,17.00
2022-11-28T20:39:05.881Z,19.67
2022-11-28T20:41:52.207Z,18.43
2022-11-28T20:44:39.760Z,19.43
2022-11-28T20:47:25.918Z,21.17
2022-11-28T20:50:12.292Z,19.40
2022-11-28T20:52:58.500Z,20.73
2022-11-28T20:55:45.117Z,18.50
2022-11-28T20:58:32.549Z,17.50
2022-11-28T21:01:22.323Z,17.10
2022-11-28T21:04:09.782Z,19.97
2022-11-28T21:06:56.140Z,20.13
2022-11-28T21:09:42.735Z,19.57
2022-11-28T21:12:29.618Z,18.20
2022-11-28T21:15:15.949Z,22.77
2022-11-28T21:18:05.144Z,22.03
2022-11-28T21:20:52.812Z,20.20
2022-11-28T21:23:39.582Z,21.60
2022-11-28T21:26:30.254Z,18.67
2022-11-28T21:29:17.486Z,20.73
2022-11-28T21:32:03.926Z,21.73
2022-11-28T21:34:51.592Z,21.83
2022-11-28T21:37:37.949Z,23.60
2022-11-28T21:40:24.788Z,22.53
2022-11-28T21:43:10.955Z,44.57
2022-11-28T21:46:03.082Z,24.07
2022-11-28T21:48:49.467Z,25.07
2022-11-28T21:51:37.191Z,17.73
2022-11-28T21:54:23.675Z,23.50
2022-11-28T21:57:09.946Z,21.30
2022-11-28T21:59:56.331Z,23.10
2022-11-28T22:02:46.200Z,23.60
2022-11-28T22:05:32.839Z,21.37
2022-11-28T22:08:20.759Z,24.53
2022-11-28T22:11:10.980Z,24.33
2022-11-28T22:13:57.461Z,28.57
2022-11-28T22:16:44.005Z,23.33
2022-11-28T22:19:30.706Z,24.53
2022-11-28T22:22:17.037Z,20.97
2022-11-28T22:25:05.607Z,21.17
2022-11-28T22:27:51.873Z,17.07
2022-11-28T22:30:39.673Z,21.77
2022-11-28T22:33:26.090Z,18.67
2022-11-28T22:36:14.278Z,18.23
2022-11-28T22:39:01.016Z,23.47
2022-11-28T22:41:48.670Z,21.03
2022-11-28T22:44:35.090Z,18.33
2022-11-28T22:47:21.555Z,19.33
2022-11-28T22:50:08.969Z,19.20
2022-11-28T22:52:55.595Z,16.53
2022-11-28T22:55:42.088Z,22.80
2022-11-28T22:58:29.692Z,16.03
2022-11-28T23:01:18.207Z,18.80
2022-11-28T23:04:05.127Z,18.03
2022-11-28T23:06:51.570Z,17.37
2022-11-28T23:09:37.741Z,17.13
2022-11-28T23:12:24.151Z,15.00
2022-11-28T23:15:11.921Z,17.23
2022-11-28T23:17:58.441Z,19.57
2022-11-28T23:20:44.792Z,20.80
2022-11-28T23:23:31.867Z,19.87
2022-11-28T23:26:20.146Z,19.23
2022-11-28T23:29:06.962Z,16.97
2022-11-28T23:31:54.772Z,17.70
2022-11-28T23:34:41.753Z,25.97
2022-11-28T23:37:28.128Z,20.50
2022-11-28T23:40:14.680Z,15.73
2022-11-28T23:43:01.231Z,17.50
2022-11-28T23:45:47.487Z,18.47
2022-11-28T23:48:35.891Z,16.07
2022-11-28T23:51:23.896Z,16.43
2022-11-28T23:54:12.048Z,15.90
2022-11-28T23:56:58.316Z,18.17
2022-11-28T23:59:44.799Z,17.03
